Time;durP1;ratioP1;P1;durP2;ratioP2;P2;SDS_P1;SDS_P2;PMS_P1;PMS_P2;Temp;Humidity;BMP_temperature;BMP_pressure;BME280_temperature;BME280_humidity;BME280_pressure;Samples;Min_cycle;Max_cycle;Signal;HPM_P1;HPM_P2
2022/03/01 00:02:23;;;;;;;29.38;18.30;;;3.30;99.90;;;;;;5078231;28;20075;-86
2022/03/01 00:04:48;;;;;;;26.00;17.42;;;3.20;99.90;;;;;;5077544;28;20121;-86
2022/03/01 00:07:14;;;;;;;32.13;17.73;;;3.20;99.90;;;;;;5094322;28;20035;-85
2022/03/01 00:09:40;;;;;;;26.63;16.60;;;3.20;99.90;;;;;;5094513;28;20227;-86
2022/03/01 00:12:07;;;;;;;26.27;16.95;;;3.20;99.90;;;;;;5077750;28;20040;-86
2022/03/01 00:14:32;;;;;;;30.60;17.88;;;3.10;99.90;;;;;;5077358;28;20048;-86
2022/03/01 00:16:58;;;;;;;29.63;18.48;;;3.10;99.90;;;;;;5094192;28;20039;-86
2022/03/01 00:19:27;;;;;;;26.48;16.67;;;3.20;99.90;;;;;;5093326;28;20040;-86
2022/03/01 00:21:53;;;;;;;27.15;16.45;;;3.10;99.90;;;;;;5076226;28;20043;-86
2022/03/01 00:24:18;;;;;;;25.55;15.18;;;3.20;99.90;;;;;;5093885;28;20515;-86
2022/03/01 00:26:44;;;;;;;23.63;15.52;;;3.20;99.90;;;;;;5093794;28;20047;-86
2022/03/01 00:29:10;;;;;;;23.98;14.90;;;3.20;99.90;;;;;;5093924;28;20100;-86
2022/03/01 00:31:35;;;;;;;23.38;13.98;;;3.30;99.90;;;;;;5077562;28;20035;-86
2022/03/01 00:34:01;;;;;;;21.63;14.80;;;3.30;99.90;;;;;;5094130;28;20036;-86
2022/03/01 00:36:26;;;;;;;22.02;14.63;;;3.30;99.90;;;;;;5077336;28;20443;-86
2022/03/01 00:38:52;;;;;;;22.50;14.43;;;3.30;99.90;;;;;;5093926;28;20048;-86
2022/03/01 00:41:18;;;;;;;20.98;13.13;;;3.40;99.90;;;;;;5076657;28;20084;-86
2022/03/01 00:43:43;;;;;;;22.52;14.10;;;3.40;99.90;;;;;;5076730;28;20066;-86
2022/03/01 00:46:09;;;;;;;23.27;13.88;;;3.40;99.90;;;;;;5077426;28;20405;-86
2022/03/01 00:48:34;;;;;;;;;;;3.50;99.90;;;;;;5094530;28;20501;-85
2022/03/01 00:51:00;;;;;;;22.70;13.63;;;3.50;99.90;;;;;;5093783;28;19927;-86
2022/03/01 00:53:26;;;;;;;22.30;13.93;;;3.50;99.90;;;;;;5076489;28;20696;-86
2022/03/01 00:55:51;;;;;;;21.83;14.45;;;3.50;99.90;;;;;;5076553;28;20072;-85
2022/03/01 00:58:17;;;;;;;23.13;14.10;;;3.40;99.90;;;;;;5093518;28;20039;-86
2022/03/01 01:00:43;;;;;;;23.13;13.00;;;3.50;99.90;;;;;;5093323;28;20082;-86
2022/03/01 01:03:08;;;;;;;23.05;14.07;;;3.50;99.90;;;;;;5076346;28;20524;-86
2022/03/01 01:05:34;;;;;;;20.45;13.63;;;3.40;99.90;;;;;;5093034;28;20042;-86
2022/03/01 01:07:59;;;;;;;25.38;14.18;;;3.40;99.90;;;;;;5093223;28;20036;-86
2022/03/01 01:10:25;;;;;;;22.75;14.27;;;3.40;99.90;;;;;;5075827;28;20103;-86
2022/03/01 01:12:51;;;;;;;24.30;15.07;;;3.40;99.90;;;;;;5093207;28;20612;-86
2022/03/01 01:15:18;;;;;;;21.50;13.95;;;3.40;99.90;;;;;;5075786;28;20035;-86
2022/03/01 01:17:44;;;;;;;26.48;15.35;;;3.40;99.90;;;;;;5075354;28;20059;-86
2022/03/01 01:20:10;;;;;;;24.48;15.55;;;3.30;99.90;;;;;;5075834;28;20040;-85
2022/03/01 01:22:42;;;;;;;25.05;15.45;;;3.30;99.90;;;;;;5076013;28;20073;-86
2022/03/01 01:25:09;;;;;;;22.95;14.55;;;3.30;99.90;;;;;;5092865;28;20043;-86
2022/03/01 01:27:36;;;;;;;25.23;14.50;;;3.30;99.90;;;;;;5075466;28;20043;-86
2022/03/01 01:30:04;;;;;;;24.15;15.20;;;3.20;99.90;;;;;;5092456;28;20047;-85
2022/03/01 01:32:29;;;;;;;22.83;14.77;;;3.20;99.90;;;;;;5076026;28;20142;-86
2022/03/01 01:34:55;;;;;;;21.73;15.52;;;3.10;99.90;;;;;;5075904;28;20130;-86
2022/03/01 01:37:20;;;;;;;23.80;14.88;;;3.10;99.90;;;;;;5092215;28;20054;-86
2022/03/01 01:39:47;;;;;;;23.63;14.20;;;3.10;99.90;;;;;;5075618;28;20514;-86
2022/03/01 01:42:13;;;;;;;24.25;14.88;;;3.00;99.90;;;;;;5075508;28;20070;-86
2022/03/01 01:44:38;;;;;;;23.92;14.00;;;3.00;99.90;;;;;;5067143;28;20040;-86
2022/03/01 01:47:07;;;;;;;22.50;14.23;;;3.00;99.90;;;;;;5071909;28;20051;-86
2022/03/01 01:49:33;;;;;;;25.23;16.13;;;3.00;99.90;;;;;;5054979;28;20047;-86
2022/03/01 01:51:59;;;;;;;24.83;15.63;;;3.00;99.90;;;;;;5072465;28;20131;-86
2022/03/01 01:54:24;;;;;;;23.60;15.10;;;3.00;99.90;;;;;;5072138;28;20138;-86
2022/03/01 01:56:50;;;;;;;24.58;15.20;;;3.00;99.90;;;;;;5072340;28;20135;-86
2022/03/01 01:59:15;;;;;;;24.55;15.73;;;2.90;99.90;;;;;;5056160;28;20032;-86
2022/03/01 02:01:41;;;;;;;25.70;15.68;;;2.90;99.90;;;;;;5071957;28;20040;-86
2022/03/01 02:04:07;;;;;;;20.42;12.85;;;2.80;99.90;;;;;;5072165;28;20044;-86
2022/03/01 02:06:37;;;;;;;23.48;14.63;;;2.80;99.90;;;;;;5072538;28;20131;-86
2022/03/01 02:09:03;;;;;;;25.15;15.30;;;2.80;99.90;;;;;;5056060;28;20536;-86
2022/03/01 02:11:28;;;;;;;25.92;15.13;;;2.80;99.90;;;;;;5072281;28;20380;-86
2022/03/01 02:13:54;;;;;;;23.83;15.80;;;2.80;99.90;;;;;;5055641;28;20134;-86
2022/03/01 02:16:20;;;;;;;23.88;15.07;;;2.70;99.90;;;;;;5055707;28;20512;-87
2022/03/01 02:18:45;;;;;;;23.70;15.23;;;2.70;99.90;;;;;;5055470;28;20131;-86
2022/03/01 02:21:11;;;;;;;24.50;15.93;;;2.70;99.90;;;;;;5055461;28;20044;-86
2022/03/01 02:23:37;;;;;;;24.40;15.23;;;2.60;99.90;;;;;;5072105;28;20139;-86
2022/03/01 02:26:02;;;;;;;24.23;15.43;;;2.60;99.90;;;;;;5055902;28;20048;-86
2022/03/01 02:28:28;;;;;;;21.90;15.50;;;2.60;99.90;;;;;;5071825;28;20044;-86
2022/03/01 02:30:55;;;;;;;28.33;15.55;;;2.60;99.90;;;;;;5055194;28;20105;-87
2022/03/01 02:33:21;;;;;;;23.08;15.18;;;2.50;99.90;;;;;;5055303;28;20186;-87
2022/03/01 02:35:47;;;;;;;25.77;15.30;;;2.50;99.90;;;;;;5072197;28;20036;-86
2022/03/01 02:38:12;;;;;;;24.40;15.27;;;2.50;99.90;;;;;;5055100;28;20040;-86
2022/03/01 02:40:38;;;;;;;23.77;15.15;;;2.50;99.90;;;;;;5086095;28;20032;-86
2022/03/01 02:43:05;;;;;;;24.00;15.63;;;2.50;99.90;;;;;;5080211;28;20036;-86
2022/03/01 02:45:31;;;;;;;22.63;15.82;;;2.50;99.90;;;;;;5083098;28;20048;-86
2022/03/01 02:47:56;;;;;;;23.13;14.70;;;2.40;99.90;;;;;;5095134;28;20040;-86
2022/03/01 02:50:22;;;;;;;24.65;15.68;;;2.40;99.90;;;;;;5080853;28;20036;-85
2022/03/01 02:52:48;;;;;;;22.90;14.88;;;2.40;99.90;;;;;;5074114;28;20391;-86
2022/03/01 02:55:14;;;;;;;22.75;14.80;;;2.40;99.90;;;;;;5059203;28;20029;-86
2022/03/01 02:57:41;;;;;;;23.85;15.10;;;2.30;99.90;;;;;;5067244;28;20097;-86
2022/03/01 03:00:07;;;;;;;23.55;14.80;;;2.40;99.90;;;;;;5075514;28;20448;-86
2022/03/01 03:02:32;;;;;;;24.88;15.48;;;2.30;99.90;;;;;;5076127;28;20044;-86
2022/03/01 03:04:58;;;;;;;22.95;15.20;;;2.30;99.90;;;;;;5074915;28;20620;-87
2022/03/01 03:07:23;;;;;;;23.08;14.77;;;2.30;99.90;;;;;;5075486;28;20125;-86
2022/03/01 03:09:49;;;;;;;23.08;15.52;;;2.30;99.90;;;;;;5075125;28;20039;-86
2022/03/01 03:12:15;;;;;;;23.77;14.27;;;2.30;99.90;;;;;;5080452;28;20050;-86
2022/03/01 03:14:40;;;;;;;20.45;13.73;;;2.30;99.90;;;;;;5095732;28;20545;-86
2022/03/01 03:17:06;;;;;;;22.38;14.50;;;2.30;99.90;;;;;;5095487;28;20042;-86
2022/03/01 03:19:32;;;;;;;22.42;14.02;;;2.30;99.90;;;;;;5078502;28;20051;-86
2022/03/01 03:21:58;;;;;;;22.52;14.07;;;2.20;99.90;;;;;;5095482;28;20054;-86
2022/03/01 03:24:23;;;;;;;21.35;13.75;;;2.20;99.90;;;;;;5078410;28;20043;-86
2022/03/01 03:26:49;;;;;;;23.98;13.52;;;2.20;99.90;;;;;;5078952;28;20051;-87
2022/03/01 03:29:15;;;;;;;22.42;14.13;;;2.20;99.90;;;;;;5074002;28;20047;-87
2022/03/01 03:31:42;;;;;;;22.02;13.68;;;2.20;99.90;;;;;;5074554;28;20493;-87
2022/03/01 03:34:09;;;;;;;22.35;13.68;;;2.10;99.90;;;;;;5058083;28;20040;-86
2022/03/01 03:36:40;;;;;;;23.80;14.13;;;2.10;99.90;;;;;;5058088;28;20044;-87
2022/03/01 03:39:08;;;;;;;20.25;13.20;;;2.10;99.90;;;;;;5074488;28;20063;-86
2022/03/01 03:41:34;;;;;;;22.73;14.32;;;2.10;99.90;;;;;;5058111;28;20143;-86
2022/03/01 03:44:00;;;;;;;20.33;13.38;;;2.10;99.90;;;;;;5074672;28;20609;-87
2022/03/01 03:46:26;;;;;;;24.73;14.07;;;2.10;99.90;;;;;;5057817;28;20058;-86
2022/03/01 03:48:52;;;;;;;24.33;14.60;;;2.10;99.90;;;;;;5058028;28;20070;-86
2022/03/01 03:51:19;;;;;;;21.70;13.93;;;2.10;99.90;;;;;;5074420;28;20044;-87
2022/03/01 03:53:45;;;;;;;22.88;13.82;;;2.10;99.90;;;;;;5057132;28;20036;-86
2022/03/01 03:56:11;;;;;;;23.05;14.57;;;2.10;99.90;;;;;;5056779;28;20067;-87
2022/03/01 03:58:36;;;;;;;24.08;18.20;;;2.10;99.90;;;;;;5057051;28;20531;-87
2022/03/01 04:01:03;;;;;;;24.63;19.58;;;2.20;99.90;;;;;;5056419;28;20398;-86
2022/03/01 04:03:29;;;;;;;21.13;14.95;;;2.20;99.90;;;;;;5062793;28;20071;-86
2022/03/01 04:05:55;;;;;;;21.85;14.55;;;2.20;99.90;;;;;;5078171;28;20082;-86
2022/03/01 04:08:20;;;;;;;28.08;16.10;;;2.20;99.90;;;;;;5077334;28;20079;-87
2022/03/01 04:10:46;;;;;;;23.83;14.30;;;2.20;99.90;;;;;;5094649;28;20142;-87
2022/03/01 04:13:11;;;;;;;21.33;13.77;;;2.20;99.90;;;;;;5077644;28;20040;-87
2022/03/01 04:15:37;;;;;;;24.05;14.90;;;2.20;99.90;;;;;;5094625;28;20071;-87
2022/03/01 04:18:04;;;;;;;21.98;14.30;;;2.20;99.90;;;;;;5094237;28;20054;-86
2022/03/01 04:20:30;;;;;;;20.80;13.88;;;2.20;99.90;;;;;;5076874;28;20040;-86
2022/03/01 04:22:56;;;;;;;24.05;15.05;;;2.20;99.90;;;;;;5077711;28;20043;-87
2022/03/01 04:25:22;;;;;;;22.33;13.32;;;2.10;99.90;;;;;;5077379;28;20043;-87
2022/03/01 04:27:48;;;;;;;24.75;14.18;;;2.20;99.90;;;;;;5094029;28;20086;-87
2022/03/01 04:30:15;;;;;;;20.67;13.18;;;2.20;99.90;;;;;;5093603;28;20410;-86
2022/03/01 04:32:42;;;;;;;21.45;14.75;;;2.10;99.90;;;;;;5076630;28;20039;-86
2022/03/01 04:35:08;;;;;;;26.00;15.52;;;2.20;99.90;;;;;;5093554;28;20579;-87
2022/03/01 04:37:36;;;;;;;22.27;14.55;;;2.10;99.90;;;;;;5076473;28;20166;-86
2022/03/01 04:40:06;;;;;;;19.10;12.88;;;2.10;99.90;;;;;;5093689;28;20044;-86
2022/03/01 04:42:32;;;;;;;19.83;13.13;;;2.10;99.90;;;;;;5076700;28;20406;-86
2022/03/01 04:44:59;;;;;;;24.88;13.48;;;2.10;99.90;;;;;;5093390;28;20378;-86
2022/03/01 04:47:25;;;;;;;22.35;13.55;;;2.10;99.90;;;;;;5093226;28;20148;-87
2022/03/01 04:49:50;;;;;;;21.98;14.55;;;2.00;99.90;;;;;;5076049;28;20035;-86
2022/03/01 04:52:16;;;;;;;23.25;14.13;;;2.00;99.90;;;;;;5075622;28;20410;-86
2022/03/01 04:54:42;;;;;;;22.73;15.05;;;2.00;99.90;;;;;;5092544;28;20397;-86
2022/03/01 04:57:07;;;;;;;21.65;13.93;;;2.00;99.90;;;;;;5093082;28;20044;-86
2022/03/01 04:59:33;;;;;;;21.58;13.52;;;2.00;99.90;;;;;;5093424;28;20039;-86
2022/03/01 05:01:59;;;;;;;23.33;14.48;;;2.00;99.90;;;;;;5092957;28;20123;-86
2022/03/01 05:04:25;;;;;;;23.25;14.07;;;1.90;99.90;;;;;;5063035;28;20126;-86
2022/03/01 05:06:51;;;;;;;21.15;13.70;;;1.90;99.90;;;;;;5055849;28;20131;-87
2022/03/01 05:09:21;;;;;;;21.55;14.15;;;2.00;99.90;;;;;;5056032;28;20077;-86
2022/03/01 05:11:49;;;;;;;20.02;13.05;;;1.90;99.90;;;;;;5072388;28;20448;-86
2022/03/01 05:14:14;;;;;;;21.30;13.25;;;2.00;99.90;;;;;;5056137;28;20051;-87
2022/03/01 05:16:40;;;;;;;23.88;14.27;;;2.00;99.90;;;;;;5056331;28;20052;-87
2022/03/01 05:19:07;;;;;;;23.08;15.50;;;1.90;99.90;;;;;;5072825;28;20101;-87
2022/03/01 05:21:33;;;;;;;24.60;14.52;;;2.00;99.90;;;;;;5055696;28;20052;-86
2022/03/01 05:23:58;;;;;;;20.83;13.75;;;2.00;99.90;;;;;;5073305;28;20044;-86
2022/03/01 05:26:24;;;;;;;22.65;14.20;;;2.00;99.90;;;;;;5072555;28;20083;-87
2022/03/01 05:28:50;;;;;;;21.65;14.65;;;2.00;99.90;;;;;;5063509;28;20290;-86
2022/03/01 05:31:17;;;;;;;22.95;14.35;;;2.00;99.90;;;;;;5032440;28;20131;-87
2022/03/01 05:33:43;;;;;;;23.45;15.05;;;2.00;99.90;;;;;;5049575;28;20041;-86
2022/03/01 05:36:09;;;;;;;25.73;15.73;;;2.00;99.90;;;;;;5032649;28;20514;-86
2022/03/01 05:38:36;;;;;;;22.20;14.73;;;2.00;99.90;;;;;;5032185;28;20133;-87
2022/03/01 05:41:02;;;;;;;22.10;15.40;;;2.00;99.90;;;;;;5048929;28;20213;-86
2022/03/01 05:43:27;;;;;;;27.75;14.52;;;2.00;99.90;;;;;;5049079;28;20591;-87
2022/03/01 05:45:53;;;;;;;23.00;14.65;;;2.00;99.90;;;;;;5049096;28;20045;-87
2022/03/01 05:48:19;;;;;;;20.90;13.88;;;2.00;99.90;;;;;;5032180;28;20047;-87
2022/03/01 05:50:44;;;;;;;22.77;15.25;;;2.00;99.90;;;;;;5049142;28;20057;-85
2022/03/01 05:53:10;;;;;;;23.83;15.15;;;2.00;99.90;;;;;;5031905;28;20522;-87
2022/03/01 05:55:36;;;;;;;23.70;14.93;;;2.00;99.90;;;;;;5048466;28;20452;-86
2022/03/01 05:58:01;;;;;;;21.63;14.57;;;2.00;99.90;;;;;;5048739;28;20771;-86
2022/03/01 06:00:27;;;;;;;24.25;14.68;;;2.00;99.90;;;;;;5048596;28;20047;-87
2022/03/01 06:02:52;;;;;;;22.90;14.13;;;2.00;99.90;;;;;;5032526;28;20037;-87
2022/03/01 06:05:18;;;;;;;22.48;14.30;;;2.00;99.90;;;;;;5068559;28;20127;-86
2022/03/01 06:07:45;;;;;;;25.10;15.48;;;2.00;99.90;;;;;;5052021;28;20040;-86
2022/03/01 06:10:11;;;;;;;26.23;15.20;;;2.00;99.90;;;;;;5051621;28;20076;-86
2022/03/01 06:12:37;;;;;;;24.15;14.82;;;1.90;99.90;;;;;;5068554;28;20054;-87
2022/03/01 06:15:04;;;;;;;21.73;14.90;;;1.90;99.90;;;;;;5068447;28;20437;-86
2022/03/01 06:17:30;;;;;;;23.45;15.40;;;1.90;99.90;;;;;;5068632;28;20135;-86
2022/03/01 06:19:55;;;;;;;24.05;15.07;;;1.90;99.90;;;;;;5071032;28;20127;-86
2022/03/01 06:22:21;;;;;;;23.48;15.05;;;1.90;99.90;;;;;;5073138;28;20048;-87
2022/03/01 06:24:47;;;;;;;21.70;14.10;;;1.90;99.90;;;;;;5056058;28;20127;-86
2022/03/01 06:27:14;;;;;;;25.30;15.25;;;2.00;99.90;;;;;;5071628;28;20040;-86
2022/03/01 06:29:39;;;;;;;22.35;14.77;;;2.00;99.90;;;;;;5084693;28;20059;-87
2022/03/01 06:32:06;;;;;;;23.52;15.48;;;1.90;99.90;;;;;;5092918;28;20052;-86
2022/03/01 06:34:32;;;;;;;23.63;15.43;;;2.00;99.90;;;;;;5075393;28;20504;-86
2022/03/01 06:36:58;;;;;;;23.30;13.98;;;2.00;99.90;;;;;;5075152;28;20036;-87
2022/03/01 06:39:24;;;;;;;24.80;15.35;;;2.00;99.90;;;;;;5076098;28;20048;-87
2022/03/01 06:41:50;;;;;;;23.45;14.68;;;2.10;99.90;;;;;;5075829;28;20414;-87
2022/03/01 06:44:16;;;;;;;21.88;14.40;;;2.00;99.90;;;;;;5076198;28;20048;-86
2022/03/01 06:46:42;;;;;;;24.75;15.60;;;2.00;99.90;;;;;;5092446;28;20077;-86
2022/03/01 06:49:08;;;;;;;24.85;15.07;;;2.10;99.90;;;;;;5091517;28;20040;-87
2022/03/01 06:51:33;;;;;;;25.40;14.77;;;2.10;99.90;;;;;;5076096;28;20418;-86
2022/03/01 06:54:00;;;;;;;22.15;14.10;;;2.10;99.90;;;;;;5072828;28;20094;-86
2022/03/01 06:56:26;;;;;;;24.90;15.32;;;2.10;99.90;;;;;;5105450;28;20039;-87
2022/03/01 06:58:51;;;;;;;24.05;14.95;;;2.10;99.90;;;;;;5080068;28;20044;-85
2022/03/01 07:01:17;;;;;;;24.38;15.85;;;2.10;99.90;;;;;;5076010;28;20040;-87
2022/03/01 07:03:43;;;;;;;23.45;15.23;;;2.10;99.90;;;;;;5076337;28;20148;-87
2022/03/01 07:06:10;;;;;;;22.55;14.80;;;2.20;99.90;;;;;;5093163;28;20036;-85
2022/03/01 07:08:36;;;;;;;21.40;14.02;;;2.20;99.90;;;;;;5090837;28;20062;-87
2022/03/01 07:11:01;;;;;;;23.92;15.13;;;2.20;99.90;;;;;;5071519;28;20036;-86
2022/03/01 07:13:27;;;;;;;23.58;15.30;;;2.20;99.90;;;;;;5092849;28;20037;-87
2022/03/01 07:15:52;;;;;;;23.67;14.52;;;2.20;99.90;;;;;;5110035;28;20060;-87
2022/03/01 07:18:18;;;;;;;23.25;14.30;;;2.30;99.90;;;;;;5109835;28;20087;-87
2022/03/01 07:20:44;;;;;;;22.92;15.23;;;2.30;99.90;;;;;;5092722;28;20478;-87
2022/03/01 07:23:13;;;;;;;24.42;15.23;;;2.40;99.90;;;;;;5098775;28;20040;-87
2022/03/01 07:25:39;;;;;;;23.58;15.30;;;2.40;99.90;;;;;;5087603;28;20127;-87
2022/03/01 07:28:05;;;;;;;23.48;14.77;;;2.40;99.90;;;;;;5092576;28;20044;-87
2022/03/01 07:30:31;;;;;;;24.27;15.13;;;2.40;99.90;;;;;;5091978;28;20056;-88
2022/03/01 07:32:58;;;;;;;23.27;15.10;;;2.40;99.90;;;;;;5075518;28;20392;-87
2022/03/01 07:35:25;;;;;;;27.52;15.70;;;2.50;99.90;;;;;;5076132;28;20480;-87
2022/03/01 07:37:52;;;;;;;23.30;14.88;;;2.50;99.90;;;;;;5075159;28;20040;-87
2022/03/01 07:40:19;;;;;;;24.23;15.88;;;2.50;99.90;;;;;;5075585;28;20505;-87
2022/03/01 07:42:45;;;;;;;26.17;15.70;;;2.60;99.90;;;;;;5097977;28;20043;-87
2022/03/01 07:45:11;;;;;;;26.08;14.30;;;2.60;99.90;;;;;;5076043;28;20476;-88
2022/03/01 07:47:37;;;;;;;22.23;14.70;;;2.70;99.90;;;;;;5077953;28;20046;-86
2022/03/01 07:50:08;;;;;;;24.60;15.27;;;2.80;99.90;;;;;;5092346;28;20044;-89
2022/03/01 07:52:33;;;;;;;26.20;18.55;;;2.80;99.90;;;;;;5091383;28;20450;-86
2022/03/01 07:54:59;;;;;;;25.27;16.25;;;2.90;99.90;;;;;;5097428;28;20507;-88
2022/03/01 07:57:25;;;;;;;23.27;15.20;;;3.00;99.90;;;;;;5071600;28;20087;-88
2022/03/01 07:59:51;;;;;;;21.83;14.82;;;3.00;99.90;;;;;;5091780;28;20039;-90
2022/03/01 08:02:16;;;;;;;22.77;15.13;;;3.10;99.90;;;;;;5109399;28;20073;-87
2022/03/01 08:04:42;;;;;;;24.33;15.57;;;3.20;99.90;;;;;;5074999;28;20044;-87
2022/03/01 08:07:09;;;;;;;26.08;15.18;;;3.20;99.90;;;;;;5074722;28;20044;-87
2022/03/01 08:09:36;;;;;;;25.40;15.38;;;3.30;99.90;;;;;;5074893;28;20044;-87
2022/03/01 08:12:02;;;;;;;23.52;15.00;;;3.40;99.90;;;;;;5091637;28;20044;-87
2022/03/01 08:14:30;;;;;;;24.00;14.55;;;3.40;99.90;;;;;;5092149;28;20044;-87
2022/03/01 08:16:57;;;;;;;26.50;14.68;;;3.40;99.90;;;;;;5075314;28;20546;-86
2022/03/01 08:19:23;;;;;;;24.45;15.02;;;3.50;99.90;;;;;;5108577;28;20070;-85
2022/03/01 08:21:49;;;;;;;22.08;14.43;;;3.50;99.90;;;;;;5092552;28;20486;-86
2022/03/01 08:24:15;;;;;;;22.92;14.40;;;3.50;99.90;;;;;;5074729;28;20040;-86
2022/03/01 08:26:41;;;;;;;23.10;14.55;;;3.60;99.90;;;;;;5108647;28;20048;-86
2022/03/01 08:29:07;;;;;;;22.85;14.75;;;3.60;99.90;;;;;;5108163;28;20783;-86
2022/03/01 08:31:33;;;;;;;24.13;14.85;;;3.70;99.90;;;;;;5112032;28;20055;-86
2022/03/01 08:33:59;;;;;;;20.48;13.90;;;3.70;99.90;;;;;;5111828;28;20722;-86
2022/03/01 08:36:28;;;;;;;22.17;14.35;;;3.80;99.90;;;;;;5106503;28;20040;-87
2022/03/01 08:38:54;;;;;;;21.42;13.95;;;3.80;99.90;;;;;;5106389;28;20056;-86
2022/03/01 08:41:19;;;;;;;21.75;14.88;;;3.80;99.90;;;;;;5098203;28;20085;-86
2022/03/01 08:43:45;;;;;;;21.73;14.75;;;3.90;99.90;;;;;;5071158;28;20078;-86
2022/03/01 08:46:12;;;;;;;20.30;14.25;;;3.90;99.90;;;;;;5070994;28;20043;-86
2022/03/01 08:48:38;;;;;;;22.70;14.75;;;3.90;99.90;;;;;;5085164;28;20495;-86
2022/03/01 08:51:07;;;;;;;22.60;15.10;;;4.00;99.90;;;;;;5089875;28;20028;-86
2022/03/01 08:53:33;;;;;;;24.25;14.60;;;4.00;99.90;;;;;;5091656;28;20461;-86
2022/03/01 08:55:59;;;;;;;24.63;15.20;;;4.10;99.90;;;;;;5105605;28;20135;-86
2022/03/01 08:58:25;;;;;;;20.90;14.85;;;4.10;99.90;;;;;;5084252;28;20127;-87
2022/03/01 09:00:53;;;;;;;23.67;18.07;;;4.20;99.90;;;;;;5097133;28;20437;-86
2022/03/01 09:03:19;;;;;;;24.30;19.40;;;4.20;99.90;;;;;;5073359;28;20401;-86
2022/03/01 09:05:45;;;;;;;23.80;17.88;;;4.30;99.90;;;;;;5073048;28;20417;-87
2022/03/01 09:08:13;;;;;;;24.65;18.88;;;4.40;99.90;;;;;;5089671;28;20422;-87
2022/03/01 09:10:42;;;;;;;23.50;18.52;;;4.50;99.90;;;;;;5073218;28;20402;-87
2022/03/01 09:13:07;;;;;;;21.38;17.98;;;4.60;99.90;;;;;;5090200;28;20485;-86
2022/03/01 09:15:33;;;;;;;22.73;18.50;;;4.70;99.90;;;;;;5072653;28;20471;-87
2022/03/01 09:18:07;;;;;;;23.00;17.90;;;4.90;99.90;;;;;;5090078;28;21274;-87
2022/03/01 09:20:33;;;;;;;20.60;15.93;;;5.00;99.90;;;;;;5091496;28;20047;-86
2022/03/01 09:23:00;;;;;;;21.63;14.70;;;5.10;99.90;;;;;;5074090;28;20044;-86
2022/03/01 09:25:26;;;;;;;26.23;15.18;;;5.10;99.90;;;;;;5073470;28;20079;-86
2022/03/01 09:27:52;;;;;;;20.42;13.98;;;5.20;99.90;;;;;;5072956;28;20036;-86
2022/03/01 09:30:18;;;;;;;21.15;15.23;;;5.30;99.90;;;;;;5080524;28;20123;-83
2022/03/01 09:32:45;;;;;;;21.77;13.90;;;5.40;99.90;;;;;;5089820;28;20047;-86
2022/03/01 09:35:11;;;;;;;24.77;16.05;;;5.60;99.90;;;;;;5073013;28;20514;-87
2022/03/01 09:37:37;;;;;;;20.10;14.32;;;5.70;99.90;;;;;;5073381;28;20131;-87
2022/03/01 09:40:05;;;;;;;22.83;14.93;;;5.80;99.90;;;;;;5090094;28;20047;-86
2022/03/01 09:42:32;;;;;;;21.92;13.85;;;5.90;99.90;;;;;;5073550;28;20040;-87
2022/03/01 09:44:58;;;;;;;25.30;14.45;;;6.00;99.90;;;;;;5089948;28;20047;-87
2022/03/01 09:47:24;;;;;;;20.67;14.55;;;6.00;99.90;;;;;;5072648;28;20047;-86
2022/03/01 09:49:51;;;;;;;20.48;14.02;;;6.00;99.90;;;;;;5090030;28;20491;-86
2022/03/01 09:52:18;;;;;;;22.02;15.00;;;6.00;99.90;;;;;;5089543;28;20051;-87
2022/03/01 09:54:45;;;;;;;22.50;15.18;;;6.10;99.90;;;;;;5090949;28;20066;-86
2022/03/01 09:57:13;;;;;;;19.70;14.07;;;6.10;99.90;;;;;;5072672;28;20040;-87
2022/03/01 09:59:38;;;;;;;22.40;14.90;;;6.00;99.90;;;;;;5072746;28;20486;-87
2022/03/01 10:02:04;;;;;;;20.88;14.13;;;5.90;99.90;;;;;;5090071;28;20051;-86
2022/03/01 10:04:29;;;;;;;20.13;13.98;;;5.90;99.90;;;;;;5072918;28;20043;-87
2022/03/01 10:06:55;;;;;;;19.35;14.57;;;5.80;99.90;;;;;;5072505;28;20047;-86
2022/03/01 10:09:24;;;;;;;20.27;13.73;;;5.80;99.90;;;;;;5072873;28;20040;-87
2022/03/01 10:11:51;;;;;;;18.27;13.70;;;5.80;99.90;;;;;;5089924;28;20436;-87
2022/03/01 10:14:31;;;;;;;22.75;14.50;;;5.80;99.90;;;;;;5088634;28;20507;-87
2022/03/01 10:16:57;;;;;;;20.90;14.52;;;5.70;99.90;;;;;;5071610;28;20044;-87
2022/03/01 10:19:23;;;;;;;21.08;14.88;;;5.80;99.90;;;;;;5088198;28;20054;-87
2022/03/01 10:22:02;;;;;;;20.58;14.55;;;5.80;99.90;;;;;;5081409;28;20776;-87
2022/03/01 10:24:28;;;;;;;24.88;14.45;;;5.80;99.90;;;;;;5107184;28;20062;-86
2022/03/01 10:26:59;;;;;;;20.25;13.80;;;5.90;99.90;;;;;;5058410;28;20072;-87
2022/03/01 10:29:29;;;;;;;22.20;14.13;;;6.00;99.90;;;;;;5090508;28;20048;-87
2022/03/01 10:32:10;;;;;;;21.30;14.15;;;6.10;99.90;;;;;;5089508;28;20058;-87
2022/03/01 10:34:36;;;;;;;21.08;14.13;;;6.20;99.90;;;;;;5073189;28;20044;-87
2022/03/01 10:37:13;;;;;;;;;;;6.50;99.90;;;;;;5091278;28;20085;-86
2022/03/01 10:39:38;;;;;;;;;;;6.90;99.90;;;;;;5071991;28;19920;-85
2022/03/01 10:42:05;;;;;;;;;;;7.50;99.90;;;;;;5053231;28;19920;-87
2022/03/01 10:44:31;;;;;;;20.83;14.85;;;8.10;99.90;;;;;;5060648;28;19938;-87
2022/03/01 10:46:58;;;;;;;20.88;15.98;;;8.60;99.90;;;;;;5071326;28;20803;-88
2022/03/01 10:49:28;;;;;;;;;;;9.00;99.90;;;;;;5090285;28;20101;-87
2022/03/01 10:51:59;;;;;;;;;;;9.60;99.90;;;;;;5089529;28;19926;-87
2022/03/01 10:54:30;;;;;;;;;;;10.10;99.90;;;;;;5072185;28;19931;-88
2022/03/01 10:56:57;;;;;;;;;;;10.30;99.00;;;;;;5092925;28;19970;-87
2022/03/01 10:59:23;;;;;;;;;;;10.50;98.00;;;;;;5072531;28;19931;-87
2022/03/01 11:01:49;;;;;;;;;;;10.50;97.10;;;;;;5089454;28;19926;-87
2022/03/01 11:04:15;;;;;;;;;;;10.60;94.00;;;;;;5069734;28;19921;-87
2022/03/01 11:06:41;;;;;;;;;;;10.90;95.60;;;;;;5126857;27;19919;-87
2022/03/01 11:09:07;;;;;;;;;;;11.20;94.90;;;;;;5110530;28;20422;-86
2022/03/01 11:11:33;;;;;;;;;;;11.40;93.70;;;;;;5059484;28;20398;-87
2022/03/01 11:13:59;;;;;;;;;;;11.60;94.30;;;;;;5096246;28;20386;-87
2022/03/01 11:16:44;;;;;;;;;;;11.80;92.90;;;;;;5101280;28;19931;-87
2022/03/01 11:19:38;;;;;;;;;;;12.20;91.80;;;;;;5105060;28;19943;-87
2022/03/01 11:22:06;;;;;;;;;;;12.50;91.50;;;;;;5076565;28;19928;-86
2022/03/01 11:24:31;;;;;;;;;;;12.50;90.30;;;;;;5076648;28;19920;-85
2022/03/01 11:27:07;;;;;;;;;;;12.20;89.10;;;;;;5076520;28;19966;-87
2022/03/01 11:29:37;;;;;;;;;;;11.80;89.60;;;;;;5092816;28;19920;-85
2022/03/01 11:32:09;;;;;;;;;;;11.30;90.10;;;;;;5075889;28;20015;-86
2022/03/01 11:34:35;;;;;;;;;;;10.90;90.90;;;;;;5092922;28;19973;-86
2022/03/01 11:37:01;;;;;;;;;;;10.60;91.50;;;;;;5093447;28;20294;-86
2022/03/01 11:39:27;;;;;;;;;;;10.40;91.60;;;;;;5076307;28;19954;-86
2022/03/01 11:42:00;;;;;;;;;;;10.10;90.40;;;;;;5093248;28;19924;-86
2022/03/01 11:44:25;;;;;;;;;;;9.80;91.50;;;;;;5076032;28;19927;-86
2022/03/01 11:46:53;;;;;;;17.50;12.30;;;9.70;92.40;;;;;;5092737;28;19939;-85
2022/03/01 11:49:20;;;;;;;16.80;12.38;;;9.50;92.10;;;;;;5092207;28;20051;-86
2022/03/01 11:51:58;;;;;;;19.00;12.93;;;9.40;93.10;;;;;;5075386;28;20152;-85
2022/03/01 11:54:29;;;;;;;18.67;13.30;;;9.40;93.10;;;;;;5075265;28;20109;-87
2022/03/01 11:56:57;;;;;;;16.17;12.68;;;9.20;93.00;;;;;;5074949;28;20570;-84
2022/03/01 11:59:23;;;;;;;;;;;9.10;93.60;;;;;;5075183;28;20040;-85
2022/03/01 12:01:51;;;;;;;17.65;12.57;;;9.00;94.30;;;;;;5075295;28;19920;-86
2022/03/01 12:04:27;;;;;;;20.33;12.85;;;8.90;94.40;;;;;;5092316;28;20414;-85
2022/03/01 12:06:55;;;;;;;16.88;13.25;;;8.90;95.20;;;;;;5075096;28;20048;-86
2022/03/01 12:09:26;;;;;;;15.68;12.23;;;8.90;95.10;;;;;;5091697;28;20063;-85
2022/03/01 12:12:07;;;;;;;20.25;12.68;;;8.90;95.00;;;;;;5074762;28;20086;-85
2022/03/01 12:14:34;;;;;;;18.55;12.90;;;8.90;95.00;;;;;;5054438;28;20060;-85
2022/03/01 12:17:15;;;;;;;19.13;12.68;;;8.80;95.20;;;;;;5053565;28;20098;-85
2022/03/01 12:19:41;;;;;;;16.65;11.93;;;8.70;94.60;;;;;;5071117;28;20041;-85
2022/03/01 12:22:13;;;;;;;20.65;12.48;;;8.70;94.90;;;;;;5054324;28;20082;-85
2022/03/01 12:24:39;;;;;;;16.75;12.00;;;8.70;94.70;;;;;;5070979;28;20037;-85
2022/03/01 12:27:05;;;;;;;20.55;13.60;;;8.60;94.70;;;;;;5054502;28;20044;-84
2022/03/01 12:29:35;;;;;;;19.77;13.60;;;8.60;94.90;;;;;;5070458;28;20506;-85
2022/03/01 12:32:05;;;;;;;19.80;12.55;;;8.60;95.00;;;;;;5067008;28;20055;-85
2022/03/01 12:34:33;;;;;;;18.08;12.52;;;8.50;94.90;;;;;;5084530;28;20123;-85
2022/03/01 12:37:04;;;;;;;19.80;12.48;;;8.50;95.60;;;;;;5106055;28;20036;-85
2022/03/01 12:39:30;;;;;;;18.63;12.90;;;8.50;95.20;;;;;;5076657;28;20044;-87
2022/03/01 12:41:57;;;;;;;19.58;13.13;;;8.40;95.50;;;;;;5091419;28;20048;-84
2022/03/01 12:44:27;;;;;;;16.85;12.75;;;8.40;95.40;;;;;;5074109;28;20082;-85